sensor_id;sensor_type;location;lat;lon;timestamp;P1;durP1;ratioP1;P2;durP2;ratioP2
6007;SDS011;3032;49.484;11.112;2024-02-14T00:00:05;11.15;;;8.13;;
6007;SDS011;3032;49.484;11.112;2024-02-14T00:02:34;12.30;;;8.55;;
6007;SDS011;3032;49.484;11.112;2024-02-14T00:05:01;12.98;;;8.63;;
6007;SDS011;3032;49.484;11.112;2024-02-14T00:07:28;12.75;;;8.90;;
6007;SDS011;3032;49.484;11.112;2024-02-14T00:09:53;14.47;;;9.30;;
6007;SDS011;3032;49.484;11.112;2024-02-14T00:12:19;11.07;;;8.53;;
6007;SDS011;3032;49.484;11.112;2024-02-14T00:14:45;12.20;;;8.40;;
6007;SDS011;3032;49.484;11.112;2024-02-14T00:17:10;10.20;;;7.60;;
6007;SDS011;3032;49.484;11.112;2024-02-14T00:19:37;12.63;;;8.10;;
6007;SDS011;3032;49.484;11.112;2024-02-14T00:22:02;12.27;;;8.10;;
6007;SDS011;3032;49.484;11.112;2024-02-14T00:24:28;11.90;;;8.53;;
6007;SDS011;3032;49.484;11.112;2024-02-14T00:26:54;15.27;;;7.93;;
6007;SDS011;3032;49.484;11.112;2024-02-14T00:29:21;15.45;;;8.35;;
6007;SDS011;3032;49.484;11.112;2024-02-14T00:31:48;13.55;;;8.57;;
6007;SDS011;3032;49.484;11.112;2024-02-14T00:34:13;12.30;;;7.80;;
6007;SDS011;3032;49.484;11.112;2024-02-14T00:36:39;14.57;;;9.00;;
6007;SDS011;3032;49.484;11.112;2024-02-14T00:39:04;13.83;;;9.27;;
6007;SDS011;3032;49.484;11.112;2024-02-14T00:41:33;12.18;;;8.05;;
6007;SDS011;3032;49.484;11.112;2024-02-14T00:44:00;14.27;;;8.98;;
6007;SDS011;3032;49.484;11.112;2024-02-14T00:46:26;11.55;;;8.30;;
6007;SDS011;3032;49.484;11.112;2024-02-14T00:48:52;10.60;;;8.02;;
6007;SDS011;3032;49.484;11.112;2024-02-14T00:51:19;16.20;;;8.75;;
6007;SDS011;3032;49.484;11.112;2024-02-14T00:53:46;14.45;;;8.88;;
6007;SDS011;3032;49.484;11.112;2024-02-14T00:56:12;13.57;;;7.97;;
6007;SDS011;3032;49.484;11.112;2024-02-14T00:58:37;14.17;;;8.67;;
6007;SDS011;3032;49.484;11.112;2024-02-14T01:01:04;16.75;;;8.27;;
6007;SDS011;3032;49.484;11.112;2024-02-14T01:03:30;11.37;;;7.90;;
6007;SDS011;3032;49.484;11.112;2024-02-14T01:05:56;12.82;;;8.02;;
6007;SDS011;3032;49.484;11.112;2024-02-14T01:08:22;14.70;;;9.47;;
6007;SDS011;3032;49.484;11.112;2024-02-14T01:10:47;17.60;;;10.67;;
6007;SDS011;3032;49.484;11.112;2024-02-14T01:13:16;11.18;;;8.57;;
6007;SDS011;3032;49.484;11.112;2024-02-14T01:15:44;17.75;;;10.90;;
6007;SDS011;3032;49.484;11.112;2024-02-14T01:18:10;14.00;;;8.80;;
6007;SDS011;3032;49.484;11.112;2024-02-14T01:20:35;15.03;;;8.90;;
6007;SDS011;3032;49.484;11.112;2024-02-14T01:23:02;12.18;;;8.07;;
6007;SDS011;3032;49.484;11.112;2024-02-14T01:25:28;16.15;;;9.13;;
6007;SDS011;3032;49.484;11.112;2024-02-14T01:27:53;13.60;;;8.40;;
6007;SDS011;3032;49.484;11.112;2024-02-14T01:30:19;15.30;;;8.30;;
6007;SDS011;3032;49.484;11.112;2024-02-14T01:32:45;16.57;;;8.90;;
6007;SDS011;3032;49.484;11.112;2024-02-14T01:35:10;11.73;;;7.80;;
6007;SDS011;3032;49.484;11.112;2024-02-14T01:37:36;11.23;;;8.10;;
6007;SDS011;3032;49.484;11.112;2024-02-14T01:40:02;11.07;;;8.03;;
6007;SDS011;3032;49.484;11.112;2024-02-14T01:42:28;11.32;;;8.10;;
6007;SDS011;3032;49.484;11.112;2024-02-14T01:44:53;10.43;;;7.20;;
6007;SDS011;3032;49.484;11.112;2024-02-14T01:47:22;11.18;;;6.97;;
6007;SDS011;3032;49.484;11.112;2024-02-14T01:49:47;11.13;;;8.37;;
6007;SDS011;3032;49.484;11.112;2024-02-14T01:52:13;18.67;;;8.67;;
6007;SDS011;3032;49.484;11.112;2024-02-14T01:54:40;9.98;;;6.90;;
6007;SDS011;3032;49.484;11.112;2024-02-14T01:57:06;11.13;;;8.20;;
6007;SDS011;3032;49.484;11.112;2024-02-14T01:59:33;11.55;;;8.73;;
6007;SDS011;3032;49.484;11.112;2024-02-14T02:02:02;11.25;;;8.00;;
6007;SDS011;3032;49.484;11.112;2024-02-14T02:04:32;10.65;;;7.10;;
6007;SDS011;3032;49.484;11.112;2024-02-14T02:06:57;11.13;;;8.20;;
6007;SDS011;3032;49.484;11.112;2024-02-14T02:09:23;12.07;;;8.20;;
6007;SDS011;3032;49.484;11.112;2024-02-14T02:11:49;10.63;;;7.20;;
6007;SDS011;3032;49.484;11.112;2024-02-14T02:14:16;10.63;;;8.05;;
6007;SDS011;3032;49.484;11.112;2024-02-14T02:16:42;18.50;;;7.43;;
6007;SDS011;3032;49.484;11.112;2024-02-14T02:19:08;9.35;;;7.40;;
6007;SDS011;3032;49.484;11.112;2024-02-14T02:21:35;9.40;;;7.80;;
6007;SDS011;3032;49.484;11.112;2024-02-14T02:24:02;8.13;;;6.63;;
6007;SDS011;3032;49.484;11.112;2024-02-14T02:26:28;12.10;;;6.37;;
6007;SDS011;3032;49.484;11.112;2024-02-14T02:28:53;10.63;;;6.70;;
6007;SDS011;3032;49.484;11.112;2024-02-14T02:31:19;14.27;;;8.00;;
6007;SDS011;3032;49.484;11.112;2024-02-14T02:33:45;10.27;;;7.05;;
6007;SDS011;3032;49.484;11.112;2024-02-14T02:36:11;12.80;;;7.30;;
6007;SDS011;3032;49.484;11.112;2024-02-14T02:38:37;12.97;;;7.17;;
6007;SDS011;3032;49.484;11.112;2024-02-14T02:41:03;13.10;;;7.00;;
6007;SDS011;3032;49.484;11.112;2024-02-14T02:43:31;8.02;;;6.97;;
6007;SDS011;3032;49.484;11.112;2024-02-14T02:45:57;8.88;;;7.22;;
6007;SDS011;3032;49.484;11.112;2024-02-14T02:48:23;13.73;;;7.67;;
6007;SDS011;3032;49.484;11.112;2024-02-14T02:50:49;10.90;;;7.00;;
6007;SDS011;3032;49.484;11.112;2024-02-14T02:53:15;10.53;;;6.73;;
6007;SDS011;3032;49.484;11.112;2024-02-14T02:55:41;9.80;;;6.28;;
6007;SDS011;3032;49.484;11.112;2024-02-14T02:58:08;7.57;;;5.95;;
6007;SDS011;3032;49.484;11.112;2024-02-14T03:00:34;8.02;;;5.68;;
6007;SDS011;3032;49.484;11.112;2024-02-14T03:03:00;10.27;;;5.90;;
6007;SDS011;3032;49.484;11.112;2024-02-14T03:05:27;8.75;;;6.47;;
6007;SDS011;3032;49.484;11.112;2024-02-14T03:07:54;9.82;;;5.93;;
6007;SDS011;3032;49.484;11.112;2024-02-14T03:10:24;8.60;;;5.95;;
6007;SDS011;3032;49.484;11.112;2024-02-14T03:12:50;7.35;;;6.07;;
6007;SDS011;3032;49.484;11.112;2024-02-14T03:15:16;6.35;;;5.75;;
6007;SDS011;3032;49.484;11.112;2024-02-14T03:17:43;13.15;;;7.18;;
6007;SDS011;3032;49.484;11.112;2024-02-14T03:20:09;7.17;;;6.47;;
6007;SDS011;3032;49.484;11.112;2024-02-14T03:22:37;8.90;;;6.28;;
6007;SDS011;3032;49.484;11.112;2024-02-14T03:25:12;9.60;;;5.80;;
6007;SDS011;3032;49.484;11.112;2024-02-14T03:27:41;8.55;;;5.80;;
6007;SDS011;3032;49.484;11.112;2024-02-14T03:30:07;11.03;;;5.93;;
6007;SDS011;3032;49.484;11.112;2024-02-14T03:32:33;12.77;;;6.37;;
6007;SDS011;3032;49.484;11.112;2024-02-14T03:34:58;14.73;;;7.20;;
6007;SDS011;3032;49.484;11.112;2024-02-14T03:37:25;12.23;;;7.28;;
6007;SDS011;3032;49.484;11.112;2024-02-14T03:39:51;11.05;;;6.70;;
6007;SDS011;3032;49.484;11.112;2024-02-14T03:42:17;8.27;;;6.70;;
6007;SDS011;3032;49.484;11.112;2024-02-14T03:44:44;9.02;;;6.43;;
6007;SDS011;3032;49.484;11.112;2024-02-14T03:47:10;10.23;;;6.13;;
6007;SDS011;3032;49.484;11.112;2024-02-14T03:49:37;8.85;;;6.65;;
6007;SDS011;3032;49.484;11.112;2024-02-14T03:52:03;10.20;;;7.05;;
6007;SDS011;3032;49.484;11.112;2024-02-14T03:54:34;11.98;;;7.15;;
6007;SDS011;3032;49.484;11.112;2024-02-14T03:57:01;10.35;;;7.00;;
6007;SDS011;3032;49.484;11.112;2024-02-14T03:59:26;10.03;;;6.50;;
6007;SDS011;3032;49.484;11.112;2024-02-14T04:01:52;12.50;;;6.80;;
6007;SDS011;3032;49.484;11.112;2024-02-14T04:04:18;9.88;;;7.03;;
6007;SDS011;3032;49.484;11.112;2024-02-14T04:06:44;6.95;;;6.25;;
6007;SDS011;3032;49.484;11.112;2024-02-14T04:09:10;9.18;;;6.13;;
6007;SDS011;3032;49.484;11.112;2024-02-14T04:11:36;9.50;;;6.67;;
6007;SDS011;3032;49.484;11.112;2024-02-14T04:14:02;6.80;;;6.20;;
6007;SDS011;3032;49.484;11.112;2024-02-14T04:16:27;11.13;;;6.40;;
6007;SDS011;3032;49.484;11.112;2024-02-14T04:18:53;7.43;;;6.63;;
6007;SDS011;3032;49.484;11.112;2024-02-14T04:21:20;9.73;;;6.57;;
6007;SDS011;3032;49.484;11.112;2024-02-14T04:23:45;10.07;;;6.90;;
6007;SDS011;3032;49.484;11.112;2024-02-14T04:26:18;12.50;;;6.83;;
6007;SDS011;3032;49.484;11.112;2024-02-14T04:28:46;13.73;;;6.70;;
6007;SDS011;3032;49.484;11.112;2024-02-14T04:31:12;7.43;;;6.60;;
6007;SDS011;3032;49.484;11.112;2024-02-14T04:33:37;11.30;;;6.90;;
6007;SDS011;3032;49.484;11.112;2024-02-14T04:36:03;12.63;;;6.50;;
6007;SDS011;3032;49.484;11.112;2024-02-14T04:38:31;7.50;;;5.50;;
6007;SDS011;3032;49.484;11.112;2024-02-14T04:40:56;7.40;;;5.60;;
6007;SDS011;3032;49.484;11.112;2024-02-14T04:43:23;7.57;;;5.65;;
6007;SDS011;3032;49.484;11.112;2024-02-14T04:45:50;26.40;;;5.60;;
6007;SDS011;3032;49.484;11.112;2024-02-14T04:48:16;8.80;;;5.60;;
6007;SDS011;3032;49.484;11.112;2024-02-14T04:50:42;7.22;;;5.47;;
6007;SDS011;3032;49.484;11.112;2024-02-14T04:53:08;7.03;;;6.17;;
6007;SDS011;3032;49.484;11.112;2024-02-14T04:55:34;7.57;;;4.72;;
6007;SDS011;3032;49.484;11.112;2024-02-14T04:57:59;5.80;;;4.70;;
6007;SDS011;3032;49.484;11.112;2024-02-14T05:00:25;7.23;;;5.70;;
6007;SDS011;3032;49.484;11.112;2024-02-14T05:02:51;7.50;;;5.63;;
6007;SDS011;3032;49.484;11.112;2024-02-14T05:05:16;9.20;;;5.80;;
6007;SDS011;3032;49.484;11.112;2024-02-14T05:07:42;6.33;;;5.80;;
6007;SDS011;3032;49.484;11.112;2024-02-14T05:10:08;7.00;;;5.30;;
6007;SDS011;3032;49.484;11.112;2024-02-14T05:12:33;5.73;;;5.17;;
6007;SDS011;3032;49.484;11.112;2024-02-14T05:14:59;7.53;;;5.70;;
6007;SDS011;3032;49.484;11.112;2024-02-14T05:17:24;8.03;;;5.70;;
6007;SDS011;3032;49.484;11.112;2024-02-14T05:19:50;9.03;;;5.73;;
6007;SDS011;3032;49.484;11.112;2024-02-14T05:22:15;5.67;;;5.10;;
6007;SDS011;3032;49.484;11.112;2024-02-14T05:24:41;10.60;;;5.43;;
6007;SDS011;3032;49.484;11.112;2024-02-14T05:27:06;9.60;;;6.10;;
6007;SDS011;3032;49.484;11.112;2024-02-14T05:29:32;7.80;;;5.77;;
6007;SDS011;3032;49.484;11.112;2024-02-14T05:31:58;6.30;;;5.70;;
6007;SDS011;3032;49.484;11.112;2024-02-14T05:34:23;8.40;;;6.17;;
6007;SDS011;3032;49.484;11.112;2024-02-14T05:36:49;10.47;;;6.53;;
6007;SDS011;3032;49.484;11.112;2024-02-14T05:39:15;8.32;;;5.78;;
6007;SDS011;3032;49.484;11.112;2024-02-14T05:41:41;7.70;;;5.83;;
6007;SDS011;3032;49.484;11.112;2024-02-14T05:44:07;7.20;;;5.67;;
6007;SDS011;3032;49.484;11.112;2024-02-14T05:46:32;8.77;;;6.50;;
6007;SDS011;3032;49.484;11.112;2024-02-14T05:48:58;7.50;;;6.50;;
6007;SDS011;3032;49.484;11.112;2024-02-14T05:51:23;16.70;;;6.13;;
6007;SDS011;3032;49.484;11.112;2024-02-14T05:53:49;7.43;;;6.40;;
6007;SDS011;3032;49.484;11.112;2024-02-14T05:56:15;6.60;;;5.80;;
6007;SDS011;3032;49.484;11.112;2024-02-14T05:58:40;11.20;;;6.10;;
6007;SDS011;3032;49.484;11.112;2024-02-14T06:01:06;7.43;;;5.77;;
6007;SDS011;3032;49.484;11.112;2024-02-14T06:03:31;13.33;;;5.03;;
6007;SDS011;3032;49.484;11.112;2024-02-14T06:05:57;8.23;;;5.87;;
6007;SDS011;3032;49.484;11.112;2024-02-14T06:08:23;7.90;;;5.17;;
6007;SDS011;3032;49.484;11.112;2024-02-14T06:10:49;11.27;;;5.30;;
6007;SDS011;3032;49.484;11.112;2024-02-14T06:13:14;13.02;;;5.70;;
6007;SDS011;3032;49.484;11.112;2024-02-14T06:15:40;9.20;;;5.10;;
6007;SDS011;3032;49.484;11.112;2024-02-14T06:18:06;6.90;;;5.00;;
6007;SDS011;3032;49.484;11.112;2024-02-14T06:20:31;8.37;;;5.53;;
6007;SDS011;3032;49.484;11.112;2024-02-14T06:22:57;9.40;;;5.20;;
6007;SDS011;3032;49.484;11.112;2024-02-14T06:25:23;5.90;;;5.23;;
6007;SDS011;3032;49.484;11.112;2024-02-14T06:27:49;8.18;;;5.75;;
6007;SDS011;3032;49.484;11.112;2024-02-14T06:30:15;6.83;;;5.20;;
6007;SDS011;3032;49.484;11.112;2024-02-14T06:32:42;7.47;;;5.60;;
6007;SDS011;3032;49.484;11.112;2024-02-14T06:35:07;11.37;;;5.70;;
6007;SDS011;3032;49.484;11.112;2024-02-14T06:37:33;5.80;;;4.93;;
6007;SDS011;3032;49.484;11.112;2024-02-14T06:39:58;11.33;;;5.63;;
6007;SDS011;3032;49.484;11.112;2024-02-14T06:42:24;8.10;;;5.70;;
6007;SDS011;3032;49.484;11.112;2024-02-14T06:44:49;6.80;;;4.73;;
6007;SDS011;3032;49.484;11.112;2024-02-14T06:47:15;5.40;;;4.90;;
6007;SDS011;3032;49.484;11.112;2024-02-14T06:49:40;8.67;;;4.77;;
6007;SDS011;3032;49.484;11.112;2024-02-14T06:52:06;8.50;;;4.83;;
6007;SDS011;3032;49.484;11.112;2024-02-14T06:54:31;8.00;;;4.90;;
6007;SDS011;3032;49.484;11.112;2024-02-14T06:56:57;9.00;;;5.17;;
6007;SDS011;3032;49.484;11.112;2024-02-14T06:59:23;8.60;;;5.60;;
6007;SDS011;3032;49.484;11.112;2024-02-14T07:01:48;10.30;;;6.17;;
6007;SDS011;3032;49.484;11.112;2024-02-14T07:04:14;7.57;;;5.43;;
6007;SDS011;3032;49.484;11.112;2024-02-14T07:06:40;13.05;;;5.82;;
6007;SDS011;3032;49.484;11.112;2024-02-14T07:09:06;8.93;;;5.37;;
6007;SDS011;3032;49.484;11.112;2024-02-14T07:11:31;7.47;;;5.23;;
6007;SDS011;3032;49.484;11.112;2024-02-14T07:13:57;7.67;;;5.70;;
6007;SDS011;3032;49.484;11.112;2024-02-14T07:16:23;5.80;;;5.20;;
6007;SDS011;3032;49.484;11.112;2024-02-14T07:18:49;9.90;;;5.23;;
6007;SDS011;3032;49.484;11.112;2024-02-14T07:21:15;8.90;;;6.00;;
6007;SDS011;3032;49.484;11.112;2024-02-14T07:23:41;7.85;;;6.13;;
6007;SDS011;3032;49.484;11.112;2024-02-14T07:26:07;8.07;;;5.00;;
6007;SDS011;3032;49.484;11.112;2024-02-14T07:28:32;8.50;;;6.40;;
6007;SDS011;3032;49.484;11.112;2024-02-14T07:30:58;6.60;;;5.90;;
6007;SDS011;3032;49.484;11.112;2024-02-14T07:33:23;8.30;;;6.30;;
6007;SDS011;3032;49.484;11.112;2024-02-14T07:35:49;9.63;;;6.90;;
6007;SDS011;3032;49.484;11.112;2024-02-14T07:38:15;9.80;;;6.60;;
6007;SDS011;3032;49.484;11.112;2024-02-14T07:40:41;9.10;;;6.82;;
6007;SDS011;3032;49.484;11.112;2024-02-14T07:43:07;10.63;;;6.90;;
6007;SDS011;3032;49.484;11.112;2024-02-14T07:45:33;8.03;;;6.10;;
6007;SDS011;3032;49.484;11.112;2024-02-14T07:47:58;10.63;;;6.70;;
6007;SDS011;3032;49.484;11.112;2024-02-14T07:50:24;10.13;;;6.63;;
6007;SDS011;3032;49.484;11.112;2024-02-14T07:52:49;9.53;;;6.80;;
6007;SDS011;3032;49.484;11.112;2024-02-14T07:55:15;10.13;;;6.90;;
6007;SDS011;3032;49.484;11.112;2024-02-14T07:57:41;10.33;;;7.17;;
6007;SDS011;3032;49.484;11.112;2024-02-14T08:00:07;7.55;;;5.80;;
6007;SDS011;3032;49.484;11.112;2024-02-14T08:02:35;8.55;;;6.40;;
6007;SDS011;3032;49.484;11.112;2024-02-14T08:05:01;10.80;;;6.40;;
6007;SDS011;3032;49.484;11.112;2024-02-14T08:07:27;5.97;;;5.25;;
6007;SDS011;3032;49.484;11.112;2024-02-14T08:09:53;8.80;;;6.07;;
6007;SDS011;3032;49.484;11.112;2024-02-14T08:12:20;8.55;;;5.93;;
6007;SDS011;3032;49.484;11.112;2024-02-14T08:14:46;9.83;;;5.53;;
6007;SDS011;3032;49.484;11.112;2024-02-14T08:17:12;7.25;;;6.13;;
6007;SDS011;3032;49.484;11.112;2024-02-14T08:19:38;8.80;;;6.13;;
6007;SDS011;3032;49.484;11.112;2024-02-14T08:22:04;8.07;;;6.30;;
6007;SDS011;3032;49.484;11.112;2024-02-14T08:24:30;9.77;;;6.53;;
6007;SDS011;3032;49.484;11.112;2024-02-14T08:26:56;6.40;;;4.97;;
6007;SDS011;3032;49.484;11.112;2024-02-14T08:29:22;8.07;;;5.57;;
6007;SDS011;3032;49.484;11.112;2024-02-14T08:31:48;6.65;;;4.65;;
6007;SDS011;3032;49.484;11.112;2024-02-14T08:34:14;8.63;;;5.10;;
6007;SDS011;3032;49.484;11.112;2024-02-14T08:36:41;7.22;;;5.78;;
6007;SDS011;3032;49.484;11.112;2024-02-14T08:39:07;12.25;;;4.97;;
6007;SDS011;3032;49.484;11.112;2024-02-14T08:41:34;6.30;;;4.47;;
6007;SDS011;3032;49.484;11.112;2024-02-14T08:44:03;7.80;;;4.78;;
6007;SDS011;3032;49.484;11.112;2024-02-14T08:46:29;8.05;;;4.50;;
6007;SDS011;3032;49.484;11.112;2024-02-14T08:48:55;6.00;;;4.60;;
6007;SDS011;3032;49.484;11.112;2024-02-14T08:51:21;6.30;;;4.60;;
6007;SDS011;3032;49.484;11.112;2024-02-14T08:53:47;8.15;;;4.47;;
6007;SDS011;3032;49.484;11.112;2024-02-14T08:56:13;7.33;;;4.90;;
6007;SDS011;3032;49.484;11.112;2024-02-14T08:58:38;8.00;;;4.70;;
6007;SDS011;3032;49.484;11.112;2024-02-14T09:01:04;5.27;;;4.27;;
6007;SDS011;3032;49.484;11.112;2024-02-14T09:03:30;5.38;;;4.20;;
6007;SDS011;3032;49.484;11.112;2024-02-14T09:05:56;7.67;;;4.90;;
6007;SDS011;3032;49.484;11.112;2024-02-14T09:08:22;6.47;;;4.80;;
6007;SDS011;3032;49.484;11.112;2024-02-14T09:10:49;9.55;;;5.03;;
6007;SDS011;3032;49.484;11.112;2024-02-14T09:13:15;8.52;;;4.82;;
6007;SDS011;3032;49.484;11.112;2024-02-14T09:15:40;10.70;;;4.97;;
6007;SDS011;3032;49.484;11.112;2024-02-14T09:18:06;7.73;;;5.17;;
6007;SDS011;3032;49.484;11.112;2024-02-14T09:20:31;7.30;;;4.70;;
6007;SDS011;3032;49.484;11.112;2024-02-14T09:22:57;6.60;;;4.97;;
6007;SDS011;3032;49.484;11.112;2024-02-14T09:25:25;9.43;;;4.18;;
6007;SDS011;3032;49.484;11.112;2024-02-14T09:27:51;7.93;;;4.37;;
6007;SDS011;3032;49.484;11.112;2024-02-14T09:30:17;7.38;;;5.13;;
6007;SDS011;3032;49.484;11.112;2024-02-14T09:32:44;10.23;;;4.47;;
6007;SDS011;3032;49.484;11.112;2024-02-14T09:35:10;8.27;;;4.75;;
6007;SDS011;3032;49.484;11.112;2024-02-14T09:37:35;7.23;;;4.60;;
6007;SDS011;3032;49.484;11.112;2024-02-14T09:40:03;10.55;;;4.82;;
6007;SDS011;3032;49.484;11.112;2024-02-14T09:42:53;7.18;;;4.47;;
6007;SDS011;3032;49.484;11.112;2024-02-14T09:45:16;5.65;;;4.35;;
6007;SDS011;3032;49.484;11.112;2024-02-14T09:47:42;7.32;;;4.75;;
6007;SDS011;3032;49.484;11.112;2024-02-14T09:50:09;5.22;;;4.82;;
6007;SDS011;3032;49.484;11.112;2024-02-14T09:52:37;6.10;;;4.47;;
6007;SDS011;3032;49.484;11.112;2024-02-14T09:55:04;7.97;;;4.60;;
6007;SDS011;3032;49.484;11.112;2024-02-14T09:57:32;7.00;;;5.00;;
6007;SDS011;3032;49.484;11.112;2024-02-14T09:59:58;7.53;;;3.70;;
6007;SDS011;3032;49.484;11.112;2024-02-14T10:02:30;5.15;;;3.95;;
6007;SDS011;3032;49.484;11.112;2024-02-14T10:04:56;5.18;;;4.00;;
6007;SDS011;3032;49.484;11.112;2024-02-14T10:07:21;4.87;;;3.80;;
6007;SDS011;3032;49.484;11.112;2024-02-14T10:09:47;7.68;;;4.03;;
6007;SDS011;3032;49.484;11.112;2024-02-14T10:12:13;9.38;;;4.22;;
6007;SDS011;3032;49.484;11.112;2024-02-14T10:14:39;5.93;;;3.40;;
6007;SDS011;3032;49.484;11.112;2024-02-14T10:17:05;7.95;;;4.15;;
6007;SDS011;3032;49.484;11.112;2024-02-14T10:19:32;6.65;;;4.47;;
6007;SDS011;3032;49.484;11.112;2024-02-14T10:21:59;5.15;;;3.45;;
6007;SDS011;3032;49.484;11.112;2024-02-14T10:24:28;5.15;;;3.75;;
6007;SDS011;3032;49.484;11.112;2024-02-14T10:26:56;6.47;;;4.22;;
6007;SDS011;3032;49.484;11.112;2024-02-14T10:29:24;5.00;;;3.70;;
6007;SDS011;3032;49.484;11.112;2024-02-14T10:31:50;5.07;;;4.57;;
6007;SDS011;3032;49.484;11.112;2024-02-14T10:34:16;8.43;;;4.40;;
6007;SDS011;3032;49.484;11.112;2024-02-14T10:36:45;6.80;;;4.22;;
6007;SDS011;3032;49.484;11.112;2024-02-14T10:39:11;5.22;;;3.70;;
6007;SDS011;3032;49.484;11.112;2024-02-14T10:41:37;4.20;;;3.80;;
6007;SDS011;3032;49.484;11.112;2024-02-14T10:44:02;6.53;;;4.00;;
6007;SDS011;3032;49.484;11.112;2024-02-14T10:46:31;8.18;;;4.35;;
6007;SDS011;3032;49.484;11.112;2024-02-14T10:48:58;6.20;;;4.28;;
6007;SDS011;3032;49.484;11.112;2024-02-14T10:51:30;5.35;;;3.92;;
6007;SDS011;3032;49.484;11.112;2024-02-14T10:53:58;5.75;;;4.22;;
6007;SDS011;3032;49.484;11.112;2024-02-14T10:56:25;4.80;;;4.13;;
6007;SDS011;3032;49.484;11.112;2024-02-14T10:58:55;5.93;;;3.95;;
6007;SDS011;3032;49.484;11.112;2024-02-14T11:01:28;5.40;;;3.95;;
6007;SDS011;3032;49.484;11.112;2024-02-14T11:03:58;4.53;;;3.95;;
6007;SDS011;3032;49.484;11.112;2024-02-14T11:06:25;6.70;;;3.80;;
6007;SDS011;3032;49.484;11.112;2024-02-14T11:08:58;6.68;;;4.00;;
6007;SDS011;3032;49.484;11.112;2024-02-14T11:11:28;10.07;;;3.55;;
6007;SDS011;3032;49.484;11.112;2024-02-14T11:13:54;5.05;;;3.60;;
6007;SDS011;3032;49.484;11.112;2024-02-14T11:16:27;5.30;;;4.15;;
6007;SDS011;3032;49.484;11.112;2024-02-14T11:19:07;8.00;;;4.55;;
6007;SDS011;3032;49.484;11.112;2024-02-14T11:21:36;4.75;;;3.42;;
6007;SDS011;3032;49.484;11.112;2024-02-14T11:24:07;5.97;;;3.80;;
6007;SDS011;3032;49.484;11.112;2024-02-14T11:26:38;9.35;;;4.20;;
6007;SDS011;3032;49.484;11.112;2024-02-14T11:29:05;9.73;;;4.45;;
6007;SDS011;3032;49.484;11.112;2024-02-14T11:31:32;5.30;;;4.63;;
6007;SDS011;3032;49.484;11.112;2024-02-14T11:34:04;5.85;;;3.80;;
6007;SDS011;3032;49.484;11.112;2024-02-14T11:36:31;15.80;;;9.98;;
6007;SDS011;3032;49.484;11.112;2024-02-14T11:38:58;7.65;;;5.20;;
6007;SDS011;3032;49.484;11.112;2024-02-14T11:41:27;5.75;;;3.50;;
6007;SDS011;3032;49.484;11.112;2024-02-14T11:43:52;4.57;;;4.17;;
6007;SDS011;3032;49.484;11.112;2024-02-14T11:46:18;4.80;;;4.30;;
6007;SDS011;3032;49.484;11.112;2024-02-14T11:48:44;5.47;;;3.10;;
6007;SDS011;3032;49.484;11.112;2024-02-14T11:51:11;6.70;;;4.70;;
6007;SDS011;3032;49.484;11.112;2024-02-14T11:53:36;5.53;;;3.77;;
6007;SDS011;3032;49.484;11.112;2024-02-14T11:56:04;4.50;;;2.75;;
6007;SDS011;3032;49.484;11.112;2024-02-14T11:58:30;3.35;;;3.05;;
6007;SDS011;3032;49.484;11.112;2024-02-14T12:00:56;4.22;;;3.28;;
6007;SDS011;3032;49.484;11.112;2024-02-14T12:03:22;5.20;;;2.70;;
6007;SDS011;3032;49.484;11.112;2024-02-14T12:05:49;4.93;;;2.65;;
6007;SDS011;3032;49.484;11.112;2024-02-14T12:08:16;4.22;;;3.13;;
6007;SDS011;3032;49.484;11.112;2024-02-14T12:10:43;2.60;;;2.38;;
6007;SDS011;3032;49.484;11.112;2024-02-14T12:13:14;2.80;;;2.60;;
6007;SDS011;3032;49.484;11.112;2024-02-14T12:15:43;5.45;;;3.13;;
6007;SDS011;3032;49.484;11.112;2024-02-14T12:18:10;2.40;;;2.20;;
6007;SDS011;3032;49.484;11.112;2024-02-14T12:20:36;4.60;;;2.80;;
6007;SDS011;3032;49.484;11.112;2024-02-14T12:23:05;2.28;;;1.90;;
6007;SDS011;3032;49.484;11.112;2024-02-14T12:25:32;5.03;;;2.60;;
6007;SDS011;3032;49.484;11.112;2024-02-14T12:27:58;4.70;;;3.05;;
6007;SDS011;3032;49.484;11.112;2024-02-14T12:33:11;3.28;;;2.15;;
6007;SDS011;3032;49.484;11.112;2024-02-14T12:35:39;3.00;;;2.42;;
6007;SDS011;3032;49.484;11.112;2024-02-14T12:38:10;3.63;;;2.00;;
6007;SDS011;3032;49.484;11.112;2024-02-14T12:40:37;2.63;;;2.42;;
6007;SDS011;3032;49.484;11.112;2024-02-14T12:43:02;2.20;;;2.10;;
6007;SDS011;3032;49.484;11.112;2024-02-14T12:45:30;4.18;;;1.90;;
6007;SDS011;3032;49.484;11.112;2024-02-14T12:47:56;2.20;;;2.10;;
6007;SDS011;3032;49.484;11.112;2024-02-14T12:50:22;5.63;;;2.03;;
6007;SDS011;3032;49.484;11.112;2024-02-14T12:52:47;2.20;;;1.87;;
6007;SDS011;3032;49.484;11.112;2024-02-14T12:55:13;3.07;;;2.07;;
6007;SDS011;3032;49.484;11.112;2024-02-14T12:57:39;2.20;;;2.10;;
6007;SDS011;3032;49.484;11.112;2024-02-14T13:00:05;2.00;;;1.90;;
6007;SDS011;3032;49.484;11.112;2024-02-14T13:02:33;2.55;;;2.35;;
6007;SDS011;3032;49.484;11.112;2024-02-14T13:05:03;3.05;;;2.20;;
6007;SDS011;3032;49.484;11.112;2024-02-14T13:07:30;3.42;;;2.28;;
6007;SDS011;3032;49.484;11.112;2024-02-14T13:09:56;3.25;;;2.05;;
6007;SDS011;3032;49.484;11.112;2024-02-14T13:12:21;2.10;;;1.87;;
6007;SDS011;3032;49.484;11.112;2024-02-14T13:14:47;3.03;;;1.60;;
6007;SDS011;3032;49.484;11.112;2024-02-14T13:17:13;4.23;;;1.90;;
6007;SDS011;3032;49.484;11.112;2024-02-14T13:19:39;2.67;;;1.80;;
6007;SDS011;3032;49.484;11.112;2024-02-14T13:22:05;1.95;;;1.85;;
6007;SDS011;3032;49.484;11.112;2024-02-14T13:24:31;4.20;;;2.30;;
6007;SDS011;3032;49.484;11.112;2024-02-14T13:26:56;1.97;;;1.77;;
6007;SDS011;3032;49.484;11.112;2024-02-14T13:29:25;2.05;;;1.85;;
6007;SDS011;3032;49.484;11.112;2024-02-14T13:31:50;3.33;;;2.40;;
6007;SDS011;3032;49.484;11.112;2024-02-14T13:34:16;1.93;;;1.43;;
6007;SDS011;3032;49.484;11.112;2024-02-14T13:36:44;2.55;;;1.45;;
6007;SDS011;3032;49.484;11.112;2024-02-14T13:39:10;2.13;;;1.73;;
6007;SDS011;3032;49.484;11.112;2024-02-14T13:41:37;3.97;;;1.80;;
6007;SDS011;3032;49.484;11.112;2024-02-14T13:44:03;2.58;;;2.38;;
6007;SDS011;3032;49.484;11.112;2024-02-14T13:46:31;2.25;;;2.03;;
6007;SDS011;3032;49.484;11.112;2024-02-14T13:48:57;2.70;;;2.50;;
6007;SDS011;3032;49.484;11.112;2024-02-14T13:51:23;3.47;;;2.13;;
6007;SDS011;3032;49.484;11.112;2024-02-14T13:53:49;1.90;;;1.63;;
6007;SDS011;3032;49.484;11.112;2024-02-14T13:56:14;1.63;;;1.53;;
6007;SDS011;3032;49.484;11.112;2024-02-14T13:58:41;2.30;;;2.00;;
6007;SDS011;3032;49.484;11.112;2024-02-14T14:01:07;1.90;;;1.80;;
6007;SDS011;3032;49.484;11.112;2024-02-14T14:03:33;2.53;;;1.80;;
6007;SDS011;3032;49.484;11.112;2024-02-14T14:06:01;1.70;;;1.60;;
6007;SDS011;3032;49.484;11.112;2024-02-14T14:08:30;1.95;;;1.85;;
6007;SDS011;3032;49.484;11.112;2024-02-14T14:10:56;3.90;;;2.42;;
6007;SDS011;3032;49.484;11.112;2024-02-14T14:13:21;2.40;;;2.03;;
6007;SDS011;3032;49.484;11.112;2024-02-14T14:15:47;2.53;;;2.33;;
6007;SDS011;3032;49.484;11.112;2024-02-14T14:18:13;2.40;;;2.20;;
6007;SDS011;3032;49.484;11.112;2024-02-14T14:20:38;5.37;;;2.43;;
6007;SDS011;3032;49.484;11.112;2024-02-14T14:23:04;2.00;;;1.90;;
6007;SDS011;3032;49.484;11.112;2024-02-14T14:25:31;4.00;;;2.00;;
6007;SDS011;3032;49.484;11.112;2024-02-14T14:27:59;2.70;;;2.33;;
6007;SDS011;3032;49.484;11.112;2024-02-14T14:30:25;4.55;;;2.70;;
6007;SDS011;3032;49.484;11.112;2024-02-14T14:32:51;5.47;;;3.35;;
6007;SDS011;3032;49.484;11.112;2024-02-14T14:35:17;2.90;;;2.40;;
6007;SDS011;3032;49.484;11.112;2024-02-14T14:37:42;3.07;;;2.60;;
6007;SDS011;3032;49.484;11.112;2024-02-14T14:40:08;4.60;;;2.33;;
6007;SDS011;3032;49.484;11.112;2024-02-14T14:42:35;3.53;;;2.60;;
6007;SDS011;3032;49.484;11.112;2024-02-14T14:45:01;2.80;;;2.30;;
6007;SDS011;3032;49.484;11.112;2024-02-14T14:47:28;1.92;;;1.83;;
6007;SDS011;3032;49.484;11.112;2024-02-14T14:49:53;2.00;;;1.90;;
6007;SDS011;3032;49.484;11.112;2024-02-14T14:52:19;6.73;;;1.73;;
6007;SDS011;3032;49.484;11.112;2024-02-14T14:54:45;5.20;;;2.27;;